Time;durP1;ratioP1;P1;durP2;ratioP2;P2;SDS_P1;SDS_P2;PMS_P1;PMS_P2;Temp;Humidity;BMP_temperature;BMP_pressure;BME280_temperature;BME280_humidity;BME280_pressure;Samples;Min_cycle;Max_cycle;Signal;HPM_P1;HPM_P2
2021/01/25 00:02:25;;;;;;;0.70;0.60;;;1.20;99.90;;;1.91;100.00;36628.00;5013073;28;20628;-65
2021/01/25 00:04:52;;;;;;;0.65;0.55;;;1.20;99.90;;;1.89;100.00;37259.97;5010454;28;20188;-65
2021/01/25 00:07:19;;;;;;;0.60;0.50;;;1.20;99.90;;;1.93;100.00;37953.69;5011119;28;20207;-65
2021/01/25 00:09:46;;;;;;;0.60;0.60;;;1.20;99.90;;;1.97;100.00;39565.69;5008193;28;20274;-65
2021/01/25 00:12:13;;;;;;;0.60;0.50;;;1.20;99.90;;;1.89;100.00;39882.59;4992571;28;20373;-66
2021/01/25 00:14:40;;;;;;;0.70;0.60;;;1.10;99.90;;;1.79;100.00;39875.31;4994849;28;20593;-66
2021/01/25 00:17:08;;;;;;;0.60;0.60;;;1.10;99.90;;;1.81;100.00;41164.75;5010327;28;20695;-67
2021/01/25 00:19:34;;;;;;;0.60;0.60;;;1.10;99.90;;;1.79;100.00;41807.41;4995333;28;20263;-65
2021/01/25 00:22:02;;;;;;;0.60;0.60;;;1.10;99.90;;;1.75;100.00;42448.22;5007317;28;20179;-66
2021/01/25 00:24:30;;;;;;;0.60;0.60;;;1.10;99.90;;;1.88;100.00;43425.06;4997529;28;20254;-67
2021/01/25 00:26:57;;;;;;;0.70;0.60;;;1.00;99.90;;;1.77;100.00;43739.06;5022413;28;20723;-66
2021/01/25 00:29:24;;;;;;;0.70;0.60;;;1.00;99.90;;;1.63;100.00;44050.19;5011947;28;20218;-66
2021/01/25 00:31:51;;;;;;;0.60;0.60;;;1.00;99.90;;;1.62;100.00;44693.91;5013599;28;20202;-66
2021/01/25 00:34:19;;;;;;;0.70;0.60;;;1.00;99.90;;;1.72;100.00;47281.38;5010501;28;20194;-66
2021/01/25 00:36:46;;;;;;;0.65;0.60;;;1.00;99.90;;;1.66;100.00;47921.88;5013251;28;20218;-63
2021/01/25 00:39:12;;;;;;;0.60;0.50;;;0.90;99.90;;;1.74;100.00;48896.50;5005597;28;20648;-68
2021/01/25 00:41:39;;;;;;;0.70;0.60;;;0.90;99.90;;;1.67;100.00;49213.50;4993906;28;20291;-64
2021/01/25 00:44:06;;;;;;;0.60;0.50;;;1.00;99.90;;;1.68;100.00;49859.97;4995064;28;20281;-65
2021/01/25 00:46:33;;;;;;;0.60;0.57;;;1.00;99.90;;;1.59;100.00;50175.16;4993844;28;20227;-64
2021/01/25 00:49:00;;;;;;;0.70;0.60;;;0.90;99.90;;;1.56;100.00;50818.09;5007926;28;20206;-64
2021/01/25 00:51:30;;;;;;;0.60;0.60;;;0.90;99.90;;;1.65;100.00;52440.72;5013485;28;20187;-65
2021/01/25 00:53:57;;;;;;;0.60;0.60;;;0.90;99.90;;;1.62;100.00;52438.38;5010302;28;20225;-64
2021/01/25 00:56:24;;;;;;;0.60;0.60;;;0.90;99.90;;;1.65;100.00;52117.69;5012886;28;20636;-65
2021/01/25 00:58:52;;;;;;;0.60;0.60;;;0.90;99.90;;;1.66;100.00;52441.69;5025980;28;20280;-65
2021/01/25 01:01:19;;;;;;;0.60;0.50;;;1.00;99.90;;;1.74;100.00;52125.66;4995620;28;20225;-64
2021/01/25 01:03:46;;;;;;;0.70;0.60;;;1.00;99.90;;;1.59;100.00;51466.63;5013088;28;20520;-65
2021/01/25 01:06:13;;;;;;;0.70;0.70;;;0.90;99.90;;;1.68;100.00;52120.97;5001243;28;20328;-64
2021/01/25 01:08:41;;;;;;;0.60;0.60;;;0.90;99.90;;;1.55;100.00;50816.72;4999516;28;20187;-64
2021/01/25 01:11:08;;;;;;;0.60;0.60;;;0.90;99.90;;;1.68;100.00;50828.59;5001115;28;20222;-65
2021/01/25 01:13:35;;;;;;;0.60;0.60;;;1.00;99.90;;;1.52;100.00;49200.25;5008907;28;20745;-64
2021/01/25 01:16:02;;;;;;;0.70;0.70;;;0.90;99.90;;;1.50;100.00;48553.19;5028295;28;20244;-64
2021/01/25 01:18:29;;;;;;;0.60;0.60;;;0.90;99.90;;;1.57;100.00;47914.09;5007612;28;20699;-64
2021/01/25 01:20:56;;;;;;;0.77;0.77;;;0.90;99.90;;;1.75;100.00;47929.22;5003593;28;20680;-65
2021/01/25 01:23:23;;;;;;;0.98;0.80;;;1.00;99.90;;;1.80;100.00;46966.00;5001062;28;20215;-64
2021/01/25 01:25:51;;;;;;;0.70;0.60;;;1.00;99.90;;;1.68;100.00;45343.47;4999906;28;20265;-64
2021/01/25 01:28:18;;;;;;;0.60;0.60;;;1.00;99.90;;;1.67;100.00;44375.66;5011228;28;20234;-65
2021/01/25 01:30:45;;;;;;;0.70;0.60;;;1.00;99.90;;;1.62;100.00;43082.81;5013299;28;20233;-64
2021/01/25 01:33:11;;;;;;;0.60;0.60;;;1.00;99.90;;;1.63;100.00;42439.75;5011282;28;20266;-64
2021/01/25 01:35:39;;;;;;;0.60;0.57;;;1.00;99.90;;;1.70;100.00;41800.56;5012980;28;20703;-64
2021/01/25 01:38:06;;;;;;;0.60;0.60;;;1.00;99.90;;;1.66;100.00;40187.72;5011060;28;20191;-65
2021/01/25 01:40:33;;;;;;;0.60;0.60;;;1.00;99.90;;;1.67;100.00;39866.94;5010371;28;20835;-64
2021/01/25 01:43:01;;;;;;;0.60;0.60;;;0.90;99.90;;;1.66;100.00;38523.38;5007594;28;20188;-64
2021/01/25 01:45:32;;;;;;;0.65;0.60;;;1.00;99.90;;;1.63;100.00;37611.88;4993068;28;20228;-63
2021/01/25 01:48:00;;;;;;;0.60;0.60;;;1.00;99.90;;;1.70;100.00;36651.53;4994666;28;20528;-65
2021/01/25 01:50:29;;;;;;;0.60;0.60;;;1.00;99.90;;;1.80;100.00;36014.75;5010603;28;20253;-64
2021/01/25 01:52:58;;;;;;;0.60;0.50;;;1.00;99.90;;;1.73;100.00;34626.34;5004816;28;20627;-64
2021/01/25 01:55:28;;;;;;;0.60;0.55;;;1.00;99.90;;;1.77;100.00;33662.28;5013235;28;20195;-65
2021/01/25 01:58:00;;;;;;;0.60;0.50;;;1.00;99.90;;;1.75;100.00;32828.06;5008147;28;20187;-64
2021/01/25 02:00:30;;;;;;;0.60;0.50;;;1.00;99.90;;;1.57;100.00;30843.22;4997610;28;20559;-64
2021/01/25 02:03:03;;;;;;;0.60;0.52;;;1.00;99.90;;;1.55;100.00;30245.66;4996703;28;20168;-65
2021/01/25 02:05:31;;;;;;;0.60;0.50;;;0.90;99.90;;;1.61;100.00;29497.03;4996570;28;20176;-65
2021/01/25 02:08:00;;;;;;;0.60;0.60;;;0.90;99.90;;;1.53;100.00;28547.63;5013409;28;20537;-65
2021/01/25 02:10:29;;;;;;;0.60;0.60;;;0.90;99.90;;;1.50;100.00;27879.91;4998538;28;20199;-64
2021/01/25 02:12:59;;;;;;;0.60;0.50;;;0.80;99.90;;;1.52;100.00;27169.38;4996370;28;20178;-64
2021/01/25 02:15:29;;;;;;;0.60;0.60;;;0.80;99.90;;;1.40;100.00;25976.78;4998294;28;20218;-64
2021/01/25 02:17:57;;;;;;;0.60;0.60;;;0.80;99.90;;;1.51;100.00;25531.66;4996103;28;20270;-64
2021/01/25 02:20:32;;;;;;;1.45;1.35;;;0.80;99.90;;;1.53;100.00;24241.00;5018305;28;20178;-66
2021/01/25 02:23:33;;;;;;;0.60;0.55;;;0.80;99.90;;;1.59;100.00;24036.09;5015321;28;20178;-64
2021/01/25 02:26:15;;;;;;;0.60;0.60;;;0.80;99.90;;;1.62;100.00;23697.16;5013916;28;20253;-64
2021/01/25 02:28:44;;;;;;;0.63;0.60;;;0.80;99.90;;;1.53;100.00;22930.28;5014778;28;20224;-64
2021/01/25 02:31:12;;;;;;;0.60;0.50;;;0.80;99.90;;;1.66;100.00;23070.97;5014373;28;20219;-64
2021/01/25 02:33:45;;;;;;;0.60;0.50;;;0.80;99.90;;;1.55;100.00;21878.28;5031021;28;20651;-65
2021/01/25 02:36:15;;;;;;;0.60;0.50;;;0.90;99.90;;;1.60;100.00;21760.19;5014725;28;20242;-65
2021/01/25 02:38:46;;;;;;;0.60;0.60;;;0.80;99.90;;;1.48;100.00;20327.78;5024608;28;20222;-64
2021/01/25 02:41:15;;;;;;;0.60;0.50;;;0.90;99.90;;;1.51;100.00;20444.16;5014411;28;20202;-64
2021/01/25 02:43:43;;;;;;;0.60;0.50;;;0.90;99.90;;;1.49;100.00;19933.34;5013795;28;20207;-65
2021/01/25 02:46:12;;;;;;;0.60;0.50;;;0.80;99.90;;;1.58;100.00;19876.91;4995941;28;20246;-65
2021/01/25 02:48:39;;;;;;;0.60;0.60;;;0.90;99.90;;;1.52;100.00;18702.78;4999855;28;20190;-67
2021/01/25 02:51:07;;;;;;;0.60;0.50;;;0.90;99.90;;;1.46;100.00;17996.41;5014159;28;20613;-66
2021/01/25 02:53:34;;;;;;;0.60;0.50;;;0.90;99.90;;;1.57;100.00;17957.94;5013785;28;20206;-64
2021/01/25 02:56:02;;;;;;;0.60;0.60;;;0.90;99.90;;;1.61;100.00;17554.59;5013062;28;20608;-64
2021/01/25 02:58:29;;;;;;;0.60;0.60;;;0.90;99.90;;;1.67;100.00;16959.81;5013641;28;20207;-65
2021/01/25 03:00:57;;;;;;;1.60;1.40;;;0.90;99.90;;;1.60;100.00;15921.28;5029299;28;20195;-65
2021/01/25 03:03:26;;;;;;;0.60;0.50;;;0.90;99.90;;;1.62;100.00;15992.00;5028989;28;20249;-64
2021/01/25 03:05:56;;;;;;;0.60;0.50;;;0.90;99.90;;;1.67;100.00;15806.41;5013311;28;20226;-65
2021/01/25 03:08:24;;;;;;;0.60;0.60;;;0.90;99.90;;;1.61;100.00;15387.44;5025540;28;20200;-65
2021/01/25 03:10:52;;;;;;;0.60;0.50;;;0.90;99.90;;;1.67;100.00;15544.13;4996953;28;20180;-65
2021/01/25 03:13:25;;;;;;;0.60;0.50;;;1.00;99.90;;;1.58;100.00;15012.13;4995258;28;20215;-64
2021/01/25 03:15:57;;;;;;;0.60;0.50;;;1.00;99.90;;;1.68;100.00;15299.81;4995111;28;20184;-68
2021/01/25 03:18:26;;;;;;;0.60;0.50;;;1.00;99.90;;;1.73;100.00;15521.09;5009311;28;20192;-64
2021/01/25 03:20:55;;;;;;;0.60;0.50;;;1.00;99.90;;;1.76;100.00;15122.59;4997906;28;20206;-64
2021/01/25 03:23:23;;;;;;;0.60;0.60;;;1.00;99.90;;;1.90;100.00;16080.81;5011285;28;20187;-65
2021/01/25 03:25:50;;;;;;;0.60;0.50;;;0.90;99.90;;;1.66;100.00;14435.66;5013894;28;20191;-65
2021/01/25 03:28:17;;;;;;;0.60;0.52;;;0.90;99.90;;;1.63;100.00;15053.63;5014452;28;20191;-64
2021/01/25 03:30:44;;;;;;;0.60;0.50;;;0.90;99.90;;;1.48;100.00;14612.47;5001008;28;20192;-64
2021/01/25 03:33:11;;;;;;;0.60;0.50;;;0.90;99.90;;;1.46;100.00;14484.63;4995219;28;20192;-64
2021/01/25 03:35:39;;;;;;;0.60;0.60;;;0.90;99.90;;;1.47;100.00;14736.91;4995807;28;20195;-65
2021/01/25 03:38:06;;;;;;;0.60;0.50;;;0.80;99.90;;;1.65;100.00;14934.47;4997913;28;20217;-64
2021/01/25 03:40:34;;;;;;;0.60;0.60;;;0.80;99.90;;;1.49;100.00;13884.22;5013290;28;20209;-65
2021/01/25 03:43:01;;;;;;;0.60;0.60;;;0.80;99.90;;;1.34;100.00;12600.94;5014215;28;20673;-64
2021/01/25 03:45:29;;;;;;;0.60;0.60;;;0.80;99.90;;;1.39;100.00;12148.75;5000333;28;20215;-64
2021/01/25 03:47:56;;;;;;;0.60;0.50;;;0.80;99.90;;;1.49;100.00;11911.84;5011161;28;20598;-65
2021/01/25 03:50:25;;;;;;;0.60;0.57;;;0.80;99.90;;;1.37;100.00;10531.00;5012928;28;20207;-65
2021/01/25 03:52:53;;;;;;;0.60;0.60;;;0.70;99.90;;;1.38;100.00;9507.47;5013897;28;20219;-65
2021/01/25 03:55:20;;;;;;;0.60;0.50;;;0.70;99.90;;;1.50;100.00;8762.78;4997432;28;20188;-65
2021/01/25 03:57:47;;;;;;;0.60;0.60;;;0.70;99.90;;;1.37;100.00;7206.81;4995017;28;20188;-65
2021/01/25 04:00:15;;;;;;;0.60;0.50;;;0.70;99.90;;;1.43;100.00;6277.13;5013938;28;20219;-64
2021/01/25 04:02:42;;;;;;;0.60;0.50;;;0.70;99.90;;;1.56;100.00;5582.34;5008788;28;20188;-64
2021/01/25 04:05:10;;;;;;;0.60;0.60;;;0.70;99.90;;;1.43;100.00;3971.28;4994188;28;20584;-66
2021/01/25 04:07:38;;;;;;;0.60;0.50;;;0.70;99.90;;;1.45;100.00;3168.38;5009426;28;20204;-65
2021/01/25 04:10:08;;;;;;;0.70;0.70;;;0.70;99.90;;;1.40;100.00;2230.78;5013888;28;20198;-65
2021/01/25 04:12:36;;;;;;;0.60;0.50;;;0.70;99.90;;;1.42;100.00;1413.50;5001774;28;20261;-65
2021/01/25 04:15:04;;;;;;;0.60;0.60;;;0.70;99.90;;;1.38;100.00;81.78;5002539;28;20219;-65
2021/01/25 04:17:31;;;;;;;0.60;0.60;;;0.70;99.90;;;1.40;100.00;-653.13;4994007;28;20187;-65
2021/01/25 04:19:58;;;;;;;0.60;0.50;;;0.70;99.90;;;1.53;100.00;-1263.38;5005185;28;20261;-66
2021/01/25 04:22:25;;;;;;;0.60;0.50;;;0.70;99.90;;;1.48;100.00;-2154.78;5013390;28;20199;-65
2021/01/25 04:24:52;;;;;;;0.60;0.50;;;0.70;99.90;;;1.38;100.00;-3112.84;5003421;28;20210;-65
2021/01/25 04:27:20;;;;;;;0.60;0.50;;;0.70;99.90;;;1.34;100.00;-3812.41;5001607;28;20699;-65
2021/01/25 04:29:47;;;;;;;0.60;0.50;;;0.70;99.90;;;1.27;100.00;-5131.50;5028301;28;20222;-65
2021/01/25 04:32:14;;;;;;;0.60;0.50;;;0.70;99.90;;;1.35;100.00;-5523.41;5013933;28;20186;-65
2021/01/25 04:34:42;;;;;;;0.60;0.50;;;0.70;99.90;;;1.36;100.00;-6477.75;5013657;28;20186;-65
2021/01/25 04:37:09;;;;;;;0.60;0.50;;;0.70;99.90;;;1.28;100.00;-7547.69;5012241;28;20309;-66
2021/01/25 04:39:37;;;;;;;0.60;0.60;;;0.60;99.90;;;1.39;100.00;-8271.81;5010881;28;20720;-65
2021/01/25 04:42:05;;;;;;;0.60;0.50;;;0.60;99.90;;;1.44;100.00;-8871.63;5021916;28;20652;-65
2021/01/25 04:44:33;;;;;;;0.60;0.50;;;0.70;99.90;;;1.35;100.00;-10069.28;5001784;28;20211;-66
2021/01/25 04:47:02;;;;;;;0.60;0.60;;;0.60;99.90;;;1.39;100.00;-10403.91;5012298;28;20199;-66
2021/01/25 04:49:31;;;;;;;0.60;0.57;;;0.60;99.90;;;1.28;100.00;-11439.53;5013562;28;20648;-65
2021/01/25 04:51:59;;;;;;;0.60;0.60;;;0.60;99.90;;;1.40;100.00;-11896.38;5012364;28;20656;-65
2021/01/25 04:54:27;;;;;;;0.60;0.50;;;0.60;99.90;;;1.16;100.00;-13070.38;5006958;28;20194;-65
2021/01/25 04:56:57;;;;;;;0.60;0.55;;;0.60;99.90;;;1.32;100.00;-13409.16;4993472;28;20242;-65
2021/01/25 04:59:24;;;;;;;0.60;0.60;;;0.60;99.90;;;1.35;100.00;-14121.72;5008520;28;20204;-64
2021/01/25 05:01:54;;;;;;;0.60;0.60;;;0.60;99.90;;;1.31;100.00;-14837.94;5012567;28;20175;-65
2021/01/25 05:04:21;;;;;;;0.60;0.50;;;0.60;99.90;;;1.35;100.00;-15352.88;5010471;28;20196;-65
2021/01/25 05:06:48;;;;;;;0.90;0.90;;;0.60;99.90;;;1.31;100.00;-16039.09;5012569;28;20203;-65
2021/01/25 05:09:16;;;;;;;0.60;0.57;;;0.60;99.90;;;1.31;100.00;-16505.97;5004540;28;20223;-65
2021/01/25 05:11:42;;;;;;;0.60;0.60;;;0.60;99.90;;;1.27;100.00;-17105.47;4993068;28;20238;-65
2021/01/25 05:14:10;;;;;;;0.60;0.60;;;0.60;99.90;;;1.39;100.00;-17308.22;4993428;28;20226;-65
2021/01/25 05:16:37;;;;;;;0.60;0.50;;;0.60;99.90;;;1.35;100.00;-17808.72;4993490;28;20199;-65
2021/01/25 05:19:05;;;;;;;0.60;0.50;;;0.60;99.90;;;1.41;100.00;-17997.81;5002500;28;20278;-66
2021/01/25 05:21:40;;;;;;;0.60;0.60;;;0.60;99.90;;;1.32;100.00;-18430.31;5011376;28;20249;-64
2021/01/25 05:24:11;;;;;;;0.70;0.60;;;0.60;99.90;;;1.35;100.00;-18668.06;5014867;28;20187;-65
2021/01/25 05:26:50;;;;;;;0.60;0.50;;;0.60;99.90;;;1.33;100.00;-19032.97;5001858;28;20199;-65
2021/01/25 05:29:26;;;;;;;0.60;0.50;;;0.60;99.90;;;1.32;100.00;-19254.88;5007167;28;20636;-65
2021/01/25 05:31:54;;;;;;;0.60;0.50;;;0.60;99.90;;;1.35;100.00;-19519.66;5006488;28;20245;-65
2021/01/25 05:34:23;;;;;;;0.60;0.60;;;0.60;99.90;;;1.24;100.00;-19938.91;5014174;28;20195;-64
2021/01/25 05:36:50;;;;;;;0.60;0.50;;;0.60;99.90;;;1.28;100.00;-20176.88;5014359;28;20693;-65
2021/01/25 05:39:18;;;;;;;0.60;0.60;;;0.60;99.90;;;1.30;100.00;-20399.38;5005092;28;20199;-65
2021/01/25 05:41:53;;;;;;;0.60;0.57;;;0.60;99.90;;;1.34;100.00;-20610.34;5015687;28;20214;-64
2021/01/25 05:44:21;;;;;;;0.60;0.50;;;0.60;99.90;;;1.36;100.00;-20692.19;5014344;28;20230;-64
2021/01/25 05:46:48;;;;;;;0.70;0.70;;;0.60;99.90;;;1.29;100.00;-20716.78;5016303;28;20214;-64
2021/01/25 05:49:26;;;;;;;0.60;0.50;;;0.60;99.90;;;1.27;100.00;-20716.22;5015972;28;20191;-66
2021/01/25 05:51:54;;;;;;;0.60;0.50;;;0.60;99.90;;;1.48;100.00;-20721.94;5031291;28;20190;-65
2021/01/25 05:54:22;;;;;;;0.60;0.50;;;0.60;99.90;;;1.38;100.00;-20719.44;5008696;28;20194;-65
2021/01/25 05:56:49;;;;;;;0.60;0.52;;;0.60;99.90;;;1.36;100.00;-20718.88;5015892;28;20559;-65
2021/01/25 05:59:16;;;;;;;0.60;0.50;;;0.60;99.90;;;1.43;100.00;-20720.81;5014216;28;20762;-64
2021/01/25 06:01:43;;;;;;;0.60;0.50;;;0.60;99.90;;;1.46;100.00;-20721.53;5015709;28;20560;-65
2021/01/25 06:04:16;;;;;;;0.60;0.60;;;0.60;99.90;;;1.39;100.00;-20719.72;5025507;28;20216;-64
2021/01/25 06:07:04;;;;;;;0.90;0.90;;;0.60;99.90;;;1.39;100.00;-20719.56;5011731;28;20211;-65
2021/01/25 06:09:42;;;;;;;0.60;0.60;;;0.60;99.90;;;1.43;100.00;-20720.69;5003262;28;20200;-64
2021/01/25 06:12:10;;;;;;;0.60;0.60;;;0.60;99.90;;;1.50;100.00;-20722.63;5028565;28;20207;-64
2021/01/25 06:14:46;;;;;;;0.60;0.50;;;0.60;99.90;;;1.45;100.00;-20721.25;5014133;28;20210;-65
2021/01/25 06:17:16;;;;;;;0.60;0.50;;;0.70;99.90;;;1.50;100.00;-20722.50;5016113;28;20192;-65
2021/01/25 06:19:44;;;;;;;0.60;0.50;;;0.70;99.90;;;1.45;100.00;-20721.25;5014403;28;20273;-65
2021/01/25 06:22:11;;;;;;;0.60;0.50;;;0.70;99.90;;;1.40;100.00;-20720.00;5015438;28;20722;-65
2021/01/25 06:24:40;;;;;;;0.60;0.50;;;0.70;99.90;;;1.37;100.00;-20719.16;5011712;28;20206;-65
2021/01/25 06:27:07;;;;;;;0.60;0.60;;;0.70;99.90;;;1.33;100.00;-20718.03;5000533;28;20203;-65
2021/01/25 06:29:36;;;;;;;0.60;0.50;;;0.70;99.90;;;1.42;100.00;-20720.53;5009881;28;20683;-66
2021/01/25 06:32:04;;;;;;;0.60;0.50;;;0.70;99.90;;;1.39;100.00;-20719.72;5013616;28;20209;-65
2021/01/25 06:34:36;;;;;;;0.60;0.50;;;0.70;99.90;;;1.48;100.00;-20722.09;4998587;28;20188;-65
2021/01/25 06:37:03;;;;;;;0.60;0.50;;;0.70;99.90;;;1.56;100.00;-20724.19;5026117;28;20204;-66
2021/01/25 06:39:31;;;;;;;0.60;0.50;;;0.70;99.90;;;1.54;100.00;-20723.75;5012932;28;20191;-66
2021/01/25 06:42:01;;;;;;;0.60;0.50;;;0.70;99.90;;;1.51;100.00;-20722.78;5013908;28;20191;-66
2021/01/25 06:44:29;;;;;;;0.60;0.50;;;0.70;99.90;;;1.49;100.00;-20722.22;5029714;28;20210;-64
2021/01/25 06:46:58;;;;;;;0.60;0.60;;;0.70;99.90;;;1.50;100.00;-20722.50;5015347;28;20203;-65
2021/01/25 06:49:28;;;;;;;0.60;0.60;;;0.70;99.90;;;1.52;100.00;-20723.06;5013783;28;20203;-65
2021/01/25 06:51:55;;;;;;;0.60;0.50;;;0.70;99.90;;;1.53;100.00;-20723.47;5013897;28;20199;-65
2021/01/25 06:54:25;;;;;;;0.60;0.60;;;0.70;99.90;;;1.50;100.00;-20722.50;5014031;28;20195;-65
2021/01/25 06:56:55;;;;;;;0.60;0.50;;;0.80;99.90;;;1.58;100.00;-20724.75;5013232;28;20198;-66
2021/01/25 06:59:24;;;;;;;0.60;0.50;;;0.80;99.90;;;1.58;100.00;-20724.75;5013563;28;20581;-65
2021/01/25 07:01:53;;;;;;;0.60;0.50;;;0.80;99.90;;;1.51;100.00;-20722.78;5015112;28;20529;-66
2021/01/25 07:04:22;;;;;;;0.60;0.50;;;0.80;99.90;;;1.61;100.00;-20725.56;5020320;28;20278;-67
2021/01/25 07:06:50;;;;;;;0.60;0.50;;;0.80;99.90;;;1.67;100.00;-20727.25;5010728;28;20207;-65
2021/01/25 07:09:29;;;;;;;0.60;0.50;;;0.80;99.90;;;1.65;100.00;-20726.69;5012888;28;20199;-66
2021/01/25 07:11:59;;;;;;;0.60;0.60;;;0.80;99.90;;;1.62;100.00;-20725.84;5012683;28;20186;-65
2021/01/25 07:14:29;;;;;;;0.60;0.60;;;0.80;99.90;;;1.67;100.00;-20727.25;5011019;28;20211;-65
2021/01/25 07:16:58;;;;;;;0.70;0.70;;;0.80;99.90;;;1.63;100.00;-20726.28;5007866;28;20218;-66
2021/01/25 07:19:26;;;;;;;0.60;0.50;;;0.80;99.90;;;1.60;100.00;-20725.44;5013462;28;20199;-65
2021/01/25 07:21:55;;;;;;;0.60;0.50;;;0.80;99.90;;;1.61;100.00;-20725.72;5030107;28;20607;-67
2021/01/25 07:24:24;;;;;;;0.60;0.50;;;0.80;99.90;;;1.66;100.00;-20727.13;5006746;28;20188;-65
2021/01/25 07:26:59;;;;;;;0.60;0.60;;;0.90;99.90;;;1.66;100.00;-20726.97;5003826;28;20203;-65
2021/01/25 07:29:28;;;;;;;0.60;0.60;;;0.80;99.90;;;1.66;100.00;-20727.13;5011440;28;20218;-66
2021/01/25 07:31:57;;;;;;;0.60;0.60;;;0.80;99.90;;;1.66;100.00;-20726.97;5014366;28;20240;-66
2021/01/25 07:34:26;;;;;;;0.70;0.60;;;0.80;99.90;;;1.63;100.00;-20726.13;5011151;28;20191;-66
2021/01/25 07:36:53;;;;;;;0.60;0.50;;;0.80;99.90;;;1.67;100.00;-20727.41;5006399;28;20731;-66
2021/01/25 07:39:20;;;;;;;0.60;0.60;;;0.80;99.90;;;1.65;100.00;-20726.69;5006326;28;20246;-66
2021/01/25 07:41:48;;;;;;;0.60;0.50;;;0.80;99.90;;;1.73;100.00;-20728.94;5028703;28;20655;-66
2021/01/25 07:44:17;;;;;;;0.60;0.50;;;0.90;99.90;;;1.71;100.00;-20728.38;5013470;28;20211;-66
2021/01/25 07:46:47;;;;;;;0.63;0.57;;;0.90;99.90;;;1.73;100.00;-20728.78;5009875;28;20215;-65
2021/01/25 07:49:25;;;;;;;0.60;0.50;;;0.90;99.90;;;1.75;100.00;-20729.50;5014026;28;20179;-66
2021/01/25 07:51:53;;;;;;;0.60;0.60;;;0.90;99.90;;;1.74;100.00;-20729.22;5014019;28;20183;-66
2021/01/25 07:54:20;;;;;;;0.60;0.50;;;1.00;99.90;;;1.76;100.00;-20729.63;5012988;28;20183;-66
2021/01/25 07:56:48;;;;;;;0.60;0.50;;;0.90;99.90;;;1.74;100.00;-20729.22;5013764;28;20584;-66
2021/01/25 07:59:19;;;;;;;0.60;0.50;;;1.00;99.90;;;1.80;100.00;-20730.88;5006586;28;20211;-66
2021/01/25 08:01:53;;;;;;;0.60;0.52;;;1.00;99.90;;;1.73;100.00;-20728.94;4994574;28;20639;-66
2021/01/25 08:04:26;;;;;;;0.60;0.50;;;1.00;99.90;;;1.75;100.00;-20729.50;5022315;28;20600;-66
2021/01/25 08:06:58;;;;;;;0.60;0.60;;;1.00;99.90;;;1.77;100.00;-20729.91;5014062;28;20210;-66
2021/01/25 08:09:27;;;;;;;0.60;0.57;;;1.00;99.90;;;1.92;100.00;-20734.25;5008527;28;20667;-66
2021/01/25 08:11:56;;;;;;;0.60;0.50;;;1.00;99.90;;;1.91;100.00;-20733.81;4993836;28;20176;-66
2021/01/25 08:14:41;;;;;;;0.70;0.70;;;1.00;99.90;;;1.92;100.00;-20734.25;4993930;28;20211;-66
2021/01/25 08:17:16;;;;;;;0.60;0.50;;;1.10;99.90;;;2.05;100.00;-20737.59;4994294;28;20182;-66
2021/01/25 08:19:55;;;;;;;0.60;0.60;;;1.10;99.90;;;2.14;100.00;-20740.25;5000785;28;20184;-66
2021/01/25 08:22:30;;;;;;;0.60;0.57;;;1.10;99.90;;;2.18;100.00;-20741.22;5013770;28;20183;-66
2021/01/25 08:25:01;;;;;;;0.60;0.50;;;1.20;99.90;;;2.18;100.00;-20741.38;5001729;28;20191;-66
2021/01/25 08:27:31;;;;;;;0.60;0.50;;;1.20;99.90;;;2.24;100.00;-20742.91;5012945;28;20199;-66
2021/01/25 08:30:06;;;;;;;0.60;0.50;;;1.30;99.90;;;2.34;100.00;-20745.69;5009763;28;20211;-67
2021/01/25 08:32:42;;;;;;;0.60;0.60;;;1.30;99.90;;;2.43;100.00;-20748.06;4992796;28;20199;-68
2021/01/25 08:35:11;;;;;;;0.60;0.60;;;1.40;99.90;;;2.46;100.00;-20748.91;5024474;28;20187;-66
2021/01/25 08:37:40;;;;;;;0.60;0.60;;;1.50;99.90;;;2.48;100.00;-20749.31;4994486;28;20195;-66
2021/01/25 08:40:16;;;;;;;0.60;0.60;;;1.50;99.90;;;2.55;100.00;-20751.28;5007782;28;20182;-66
2021/01/25 08:42:43;;;;;;;0.60;0.52;;;1.50;99.90;;;2.49;100.00;-20749.59;5012910;28;20210;-68
2021/01/25 08:45:22;;;;;;;0.60;0.52;;;1.50;99.90;;;2.50;100.00;-20749.88;5011635;28;20636;-66
2021/01/25 08:47:50;;;;;;;0.70;0.60;;;1.40;99.90;;;2.54;100.00;-20751.00;5012601;28;20558;-66
2021/01/25 08:50:26;;;;;;;0.60;0.50;;;1.50;99.90;;;2.42;100.00;-20747.94;5009590;28;20201;-66
2021/01/25 08:53:00;;;;;;;0.60;0.60;;;1.50;99.90;;;2.40;100.00;-20747.38;5010771;28;20210;-66
2021/01/25 08:55:35;;;;;;;0.60;0.50;;;1.40;99.90;;;2.54;100.00;-20751.00;5026249;28;20198;-67
2021/01/25 08:58:13;;;;;;;0.60;0.50;;;1.40;99.90;;;2.61;100.00;-20752.94;5014412;28;20241;-66
2021/01/25 09:00:44;;;;;;;0.63;0.57;;;1.40;99.90;;;2.54;100.00;-20751.00;5016184;28;20269;-66
2021/01/25 09:03:12;;;;;;;0.60;0.50;;;1.50;99.90;;;2.47;100.00;-20749.03;5015986;28;20254;-66
2021/01/25 09:05:40;;;;;;;0.60;0.50;;;1.40;99.90;;;2.50;100.00;-20749.88;5009348;28;20199;-66
2021/01/25 09:08:07;;;;;;;0.60;0.60;;;1.40;99.90;;;2.39;100.00;-20746.94;5016656;28;20733;-68
2021/01/25 09:10:34;;;;;;;0.60;0.50;;;1.40;99.90;;;2.33;100.00;-20745.41;5014872;28;20198;-67
2021/01/25 09:13:01;;;;;;;0.60;0.60;;;1.40;99.90;;;2.40;100.00;-20747.38;5032010;28;20175;-68
2021/01/25 09:15:28;;;;;;;0.60;0.60;;;1.40;99.90;;;2.49;100.00;-20749.59;5015067;28;20211;-67
2021/01/25 09:17:57;;;;;;;0.60;0.60;;;1.40;99.90;;;2.54;100.00;-20751.00;5010610;28;20535;-67
2021/01/25 09:20:25;;;;;;;0.60;0.50;;;1.40;99.90;;;2.44;100.00;-20748.22;5013546;28;20188;-68
2021/01/25 09:22:52;;;;;;;0.60;0.52;;;1.30;99.90;;;2.47;100.00;-20749.03;5016101;28;20707;-67
2021/01/25 09:25:22;;;;;;;0.60;0.50;;;1.40;99.90;;;2.51;100.00;-20750.31;5015097;28;20187;-68
2021/01/25 09:27:50;;;;;;;0.65;0.60;;;1.40;99.90;;;2.53;100.00;-20750.72;5016626;28;20199;-71
2021/01/25 09:30:18;;;;;;;0.60;0.60;;;1.30;99.90;;;2.48;100.00;-20749.31;5016057;28;20214;-68
2021/01/25 09:32:45;;;;;;;0.60;0.50;;;1.30;99.90;;;2.49;100.00;-20749.75;5016242;28;20188;-67
2021/01/25 09:35:18;;;;;;;0.60;0.60;;;1.30;99.90;;;2.47;100.00;-20749.03;5016525;28;20194;-67
2021/01/25 09:37:45;;;;;;;0.60;0.50;;;1.30;99.90;;;2.50;100.00;-20749.88;5015840;28;20172;-68
2021/01/25 09:40:14;;;;;;;0.68;0.63;;;1.30;99.90;;;2.41;100.00;-20747.66;5028180;28;20233;-68
2021/01/25 09:42:41;;;;;;;0.60;0.60;;;1.30;99.90;;;2.40;100.00;-20747.38;5016257;28;20263;-67
2021/01/25 09:45:12;;;;;;;0.60;0.50;;;1.30;99.90;;;2.41;100.00;-20747.66;5015069;28;20317;-67
2021/01/25 09:47:40;;;;;;;0.60;0.50;;;1.30;99.90;;;2.49;100.00;-20749.75;5008543;28;20203;-68
2021/01/25 09:50:13;;;;;;;2.25;2.15;;;1.40;99.90;;;2.55;100.00;-20751.41;5008012;28;20190;-67
2021/01/25 09:52:42;;;;;;;0.60;0.60;;;1.50;99.90;;;2.75;100.00;-20756.72;5014877;28;20593;-67
2021/01/25 09:55:10;;;;;;;0.60;0.50;;;1.50;99.90;;;2.85;100.00;-20759.66;5012126;28;20179;-67
2021/01/25 09:57:38;;;;;;;0.80;0.80;;;1.60;99.90;;;2.84;100.00;-20759.38;5013000;28;20185;-67
2021/01/25 10:00:08;;;;;;;2.78;2.67;;;1.60;99.90;;;2.93;100.00;-20761.59;5001544;28;20206;-67
2021/01/25 10:02:36;;;;;;;0.60;0.60;;;1.70;99.90;;;2.93;100.00;-20761.59;5015142;28;20265;-67
2021/01/25 10:05:05;;;;;;;0.60;0.60;;;1.70;99.90;;;2.93;100.00;-20710.41;5013355;28;20265;-67
2021/01/25 10:07:35;;;;;;;0.60;0.50;;;1.70;99.90;;;3.03;100.00;-20604.19;5015535;28;20216;-66
2021/01/25 10:10:10;;;;;;;0.60;0.50;;;1.80;99.90;;;3.41;100.00;-20218.25;5004240;28;20195;-66
2021/01/25 10:12:37;;;;;;;0.60;0.50;;;1.80;99.90;;;3.42;100.00;-20164.19;5013735;28;20631;-68
2021/01/25 10:15:06;;;;;;;1.50;0.80;;;1.90;99.90;;;3.54;100.00;-19820.53;5014205;28;20297;-66
2021/01/25 10:17:34;;;;;;;0.70;0.70;;;1.90;99.90;;;3.44;100.00;-19684.28;5013882;28;20562;-70
2021/01/25 10:20:02;;;;;;;1.00;0.90;;;1.90;99.90;;;3.51;100.00;-19331.78;5029353;28;20305;-67
2021/01/25 10:22:29;;;;;;;0.60;0.50;;;1.90;99.90;;;3.52;100.00;-18952.97;5030785;28;20325;-66
2021/01/25 10:24:56;;;;;;;0.60;0.60;;;2.00;99.90;;;3.77;100.00;-18438.66;5012648;28;20249;-66
2021/01/25 10:27:25;;;;;;;0.60;0.60;;;2.00;99.90;;;3.77;100.00;-18091.59;5010493;28;20273;-67
2021/01/25 10:29:52;;;;;;;0.60;0.55;;;2.00;99.90;;;3.88;100.00;-17506.34;5014008;28;20621;-66
2021/01/25 10:32:21;;;;;;;0.60;0.50;;;2.10;99.90;;;3.61;100.00;-17554.91;5028298;28;20211;-67